sensor_id;sensor_type;location;lat;lon;timestamp;P1;durP1;ratioP1;P2;durP2;ratioP2
40152;SDS011;26371;56.992;23.912;2023-02-28T00:01:29;4.75;;;1.55;;
40152;SDS011;26371;56.992;23.912;2023-02-28T00:03:58;4.43;;;1.50;;
40152;SDS011;26371;56.992;23.912;2023-02-28T00:06:27;5.53;;;1.80;;
40152;SDS011;26371;56.992;23.912;2023-02-28T00:08:56;4.68;;;1.77;;
40152;SDS011;26371;56.992;23.912;2023-02-28T00:11:25;6.55;;;1.60;;
40152;SDS011;26371;56.992;23.912;2023-02-28T00:13:54;6.75;;;1.90;;
40152;SDS011;26371;56.992;23.912;2023-02-28T00:16:23;6.25;;;1.88;;
40152;SDS011;26371;56.992;23.912;2023-02-28T00:18:53;6.47;;;2.67;;
40152;SDS011;26371;56.992;23.912;2023-02-28T00:21:22;5.25;;;1.90;;
40152;SDS011;26371;56.992;23.912;2023-02-28T00:23:50;6.25;;;1.85;;
40152;SDS011;26371;56.992;23.912;2023-02-28T00:26:19;5.30;;;1.48;;
40152;SDS011;26371;56.992;23.912;2023-02-28T00:28:48;5.18;;;1.42;;
40152;SDS011;26371;56.992;23.912;2023-02-28T00:31:21;5.10;;;1.63;;
40152;SDS011;26371;56.992;23.912;2023-02-28T00:33:50;6.45;;;1.85;;
40152;SDS011;26371;56.992;23.912;2023-02-28T00:36:21;6.07;;;1.60;;
40152;SDS011;26371;56.992;23.912;2023-02-28T00:38:50;6.13;;;2.00;;
40152;SDS011;26371;56.992;23.912;2023-02-28T00:41:18;5.65;;;1.65;;
40152;SDS011;26371;56.992;23.912;2023-02-28T00:43:47;7.82;;;1.63;;
40152;SDS011;26371;56.992;23.912;2023-02-28T00:46:15;7.18;;;1.48;;
40152;SDS011;26371;56.992;23.912;2023-02-28T00:48:44;7.55;;;1.40;;
40152;SDS011;26371;56.992;23.912;2023-02-28T00:51:13;5.35;;;1.13;;
40152;SDS011;26371;56.992;23.912;2023-02-28T00:53:43;6.28;;;1.45;;
40152;SDS011;26371;56.992;23.912;2023-02-28T00:56:12;4.53;;;1.40;;
40152;SDS011;26371;56.992;23.912;2023-02-28T00:58:42;4.20;;;1.20;;
40152;SDS011;26371;56.992;23.912;2023-02-28T01:01:19;6.10;;;1.65;;
40152;SDS011;26371;56.992;23.912;2023-02-28T01:03:47;5.18;;;1.38;;
40152;SDS011;26371;56.992;23.912;2023-02-28T01:06:16;6.90;;;1.83;;
40152;SDS011;26371;56.992;23.912;2023-02-28T01:08:46;5.15;;;1.40;;
40152;SDS011;26371;56.992;23.912;2023-02-28T01:11:15;5.78;;;1.83;;
40152;SDS011;26371;56.992;23.912;2023-02-28T01:13:45;5.07;;;1.27;;
40152;SDS011;26371;56.992;23.912;2023-02-28T01:16:14;9.30;;;1.60;;
40152;SDS011;26371;56.992;23.912;2023-02-28T01:18:44;7.40;;;1.42;;
40152;SDS011;26371;56.992;23.912;2023-02-28T01:21:14;6.07;;;1.50;;
40152;SDS011;26371;56.992;23.912;2023-02-28T01:23:43;6.18;;;1.63;;
40152;SDS011;26371;56.992;23.912;2023-02-28T01:26:14;8.45;;;1.65;;
40152;SDS011;26371;56.992;23.912;2023-02-28T01:28:44;7.43;;;2.03;;
40152;SDS011;26371;56.992;23.912;2023-02-28T01:31:14;5.05;;;1.55;;
40152;SDS011;26371;56.992;23.912;2023-02-28T01:33:42;5.22;;;1.60;;
40152;SDS011;26371;56.992;23.912;2023-02-28T01:36:12;5.25;;;1.40;;
40152;SDS011;26371;56.992;23.912;2023-02-28T01:41:14;10.32;;;3.58;;
40152;SDS011;26371;56.992;23.912;2023-02-28T01:43:55;8.02;;;2.60;;
40152;SDS011;26371;56.992;23.912;2023-02-28T01:46:32;7.47;;;2.33;;
40152;SDS011;26371;56.992;23.912;2023-02-28T01:49:03;7.60;;;2.03;;
40152;SDS011;26371;56.992;23.912;2023-02-28T01:51:38;5.88;;;1.50;;
40152;SDS011;26371;56.992;23.912;2023-02-28T01:54:14;4.15;;;1.10;;
40152;SDS011;26371;56.992;23.912;2023-02-28T01:56:49;9.30;;;1.23;;
40152;SDS011;26371;56.992;23.912;2023-02-28T01:59:23;6.15;;;1.40;;
40152;SDS011;26371;56.992;23.912;2023-02-28T02:01:57;4.93;;;1.67;;
40152;SDS011;26371;56.992;23.912;2023-02-28T02:04:27;6.55;;;2.25;;
40152;SDS011;26371;56.992;23.912;2023-02-28T02:07:02;7.40;;;1.40;;
40152;SDS011;26371;56.992;23.912;2023-02-28T02:09:31;6.75;;;1.50;;
40152;SDS011;26371;56.992;23.912;2023-02-28T02:12:02;5.50;;;1.15;;
40152;SDS011;26371;56.992;23.912;2023-02-28T02:14:49;3.60;;;1.20;;
40152;SDS011;26371;56.992;23.912;2023-02-28T02:17:30;5.45;;;1.20;;
40152;SDS011;26371;56.992;23.912;2023-02-28T02:20:16;6.28;;;1.38;;
40152;SDS011;26371;56.992;23.912;2023-02-28T02:23:29;5.43;;;2.03;;
40152;SDS011;26371;56.992;23.912;2023-02-28T02:26:19;5.57;;;1.92;;
40152;SDS011;26371;56.992;23.912;2023-02-28T02:32:12;5.05;;;1.80;;
40152;SDS011;26371;56.992;23.912;2023-02-28T02:34:52;5.03;;;2.10;;
40152;SDS011;26371;56.992;23.912;2023-02-28T02:37:28;5.80;;;1.95;;
40152;SDS011;26371;56.992;23.912;2023-02-28T02:40:08;7.05;;;2.58;;
40152;SDS011;26371;56.992;23.912;2023-02-28T02:42:44;6.07;;;1.73;;
40152;SDS011;26371;56.992;23.912;2023-02-28T02:45:20;7.25;;;2.05;;
40152;SDS011;26371;56.992;23.912;2023-02-28T02:47:53;8.15;;;2.30;;
40152;SDS011;26371;56.992;23.912;2023-02-28T02:50:31;7.72;;;2.08;;
40152;SDS011;26371;56.992;23.912;2023-02-28T02:53:15;7.25;;;2.17;;
40152;SDS011;26371;56.992;23.912;2023-02-28T02:55:47;5.72;;;1.70;;
40152;SDS011;26371;56.992;23.912;2023-02-28T02:58:24;6.97;;;1.70;;
40152;SDS011;26371;56.992;23.912;2023-02-28T03:00:57;5.85;;;1.73;;
40152;SDS011;26371;56.992;23.912;2023-02-28T03:03:30;5.55;;;1.85;;
40152;SDS011;26371;56.992;23.912;2023-02-28T03:06:02;7.05;;;1.73;;
40152;SDS011;26371;56.992;23.912;2023-02-28T03:08:33;5.80;;;1.50;;
40152;SDS011;26371;56.992;23.912;2023-02-28T03:11:04;3.92;;;1.30;;
40152;SDS011;26371;56.992;23.912;2023-02-28T03:13:45;5.03;;;1.20;;
40152;SDS011;26371;56.992;23.912;2023-02-28T03:16:28;4.03;;;1.42;;
40152;SDS011;26371;56.992;23.912;2023-02-28T03:19:12;5.88;;;1.30;;
40152;SDS011;26371;56.992;23.912;2023-02-28T03:21:58;8.70;;;1.63;;
40152;SDS011;26371;56.992;23.912;2023-02-28T03:24:37;2.80;;;1.10;;
40152;SDS011;26371;56.992;23.912;2023-02-28T03:27:11;4.93;;;1.08;;
40152;SDS011;26371;56.992;23.912;2023-02-28T03:29:45;3.70;;;1.10;;
40152;SDS011;26371;56.992;23.912;2023-02-28T03:32:18;3.42;;;1.30;;
40152;SDS011;26371;56.992;23.912;2023-02-28T03:34:56;4.20;;;1.33;;
40152;SDS011;26371;56.992;23.912;2023-02-28T03:37:31;3.65;;;1.10;;
40152;SDS011;26371;56.992;23.912;2023-02-28T03:40:04;6.47;;;1.45;;
40152;SDS011;26371;56.992;23.912;2023-02-28T03:42:39;6.50;;;1.30;;
40152;SDS011;26371;56.992;23.912;2023-02-28T03:45:11;8.30;;;1.90;;
40152;SDS011;26371;56.992;23.912;2023-02-28T03:47:45;6.97;;;1.83;;
40152;SDS011;26371;56.992;23.912;2023-02-28T03:50:19;3.47;;;1.10;;
40152;SDS011;26371;56.992;23.912;2023-02-28T03:52:53;3.90;;;1.33;;
40152;SDS011;26371;56.992;23.912;2023-02-28T03:55:28;4.93;;;1.10;;
40152;SDS011;26371;56.992;23.912;2023-02-28T03:58:01;4.07;;;1.13;;
40152;SDS011;26371;56.992;23.912;2023-02-28T04:00:36;4.13;;;1.08;;
40152;SDS011;26371;56.992;23.912;2023-02-28T04:03:08;7.25;;;1.38;;
40152;SDS011;26371;56.992;23.912;2023-02-28T04:05:44;3.55;;;1.25;;
40152;SDS011;26371;56.992;23.912;2023-02-28T04:08:19;3.95;;;1.23;;
40152;SDS011;26371;56.992;23.912;2023-02-28T04:10:50;8.32;;;1.77;;
40152;SDS011;26371;56.992;23.912;2023-02-28T04:13:23;5.40;;;1.33;;
40152;SDS011;26371;56.992;23.912;2023-02-28T04:15:51;7.32;;;1.40;;
40152;SDS011;26371;56.992;23.912;2023-02-28T04:18:20;5.72;;;1.58;;
40152;SDS011;26371;56.992;23.912;2023-02-28T04:20:54;6.15;;;1.55;;
40152;SDS011;26371;56.992;23.912;2023-02-28T04:23:24;4.60;;;1.52;;
40152;SDS011;26371;56.992;23.912;2023-02-28T04:25:54;5.22;;;1.25;;
40152;SDS011;26371;56.992;23.912;2023-02-28T04:28:23;5.95;;;1.25;;
40152;SDS011;26371;56.992;23.912;2023-02-28T04:30:54;8.20;;;1.50;;
40152;SDS011;26371;56.992;23.912;2023-02-28T04:33:23;6.82;;;1.20;;
40152;SDS011;26371;56.992;23.912;2023-02-28T04:35:58;4.05;;;1.17;;
40152;SDS011;26371;56.992;23.912;2023-02-28T04:38:32;4.03;;;1.30;;
40152;SDS011;26371;56.992;23.912;2023-02-28T04:41:02;4.95;;;1.27;;
40152;SDS011;26371;56.992;23.912;2023-02-28T04:43:31;9.30;;;1.55;;
40152;SDS011;26371;56.992;23.912;2023-02-28T04:46:02;9.93;;;2.20;;
40152;SDS011;26371;56.992;23.912;2023-02-28T04:48:33;5.70;;;1.80;;
40152;SDS011;26371;56.992;23.912;2023-02-28T04:51:04;6.05;;;1.95;;
40152;SDS011;26371;56.992;23.912;2023-02-28T04:53:35;5.03;;;1.77;;
40152;SDS011;26371;56.992;23.912;2023-02-28T04:56:06;8.38;;;1.60;;
40152;SDS011;26371;56.992;23.912;2023-02-28T04:58:35;5.18;;;1.50;;
40152;SDS011;26371;56.992;23.912;2023-02-28T05:01:05;4.28;;;1.27;;
40152;SDS011;26371;56.992;23.912;2023-02-28T05:03:45;5.18;;;1.80;;
40152;SDS011;26371;56.992;23.912;2023-02-28T05:06:14;5.45;;;1.73;;
40152;SDS011;26371;56.992;23.912;2023-02-28T05:08:47;4.93;;;1.83;;
40152;SDS011;26371;56.992;23.912;2023-02-28T05:11:17;7.32;;;1.70;;
40152;SDS011;26371;56.992;23.912;2023-02-28T05:13:47;8.20;;;2.30;;
40152;SDS011;26371;56.992;23.912;2023-02-28T05:18:46;5.10;;;1.60;;
40152;SDS011;26371;56.992;23.912;2023-02-28T05:21:21;6.25;;;2.30;;
40152;SDS011;26371;56.992;23.912;2023-02-28T05:24:00;8.73;;;2.25;;
40152;SDS011;26371;56.992;23.912;2023-02-28T05:26:30;6.85;;;2.30;;
40152;SDS011;26371;56.992;23.912;2023-02-28T05:29:02;7.75;;;2.30;;
40152;SDS011;26371;56.992;23.912;2023-02-28T05:31:31;6.45;;;2.63;;
40152;SDS011;26371;56.992;23.912;2023-02-28T05:34:00;8.63;;;2.92;;
40152;SDS011;26371;56.992;23.912;2023-02-28T05:36:30;7.00;;;3.15;;
40152;SDS011;26371;56.992;23.912;2023-02-28T05:39:01;10.82;;;2.80;;
40152;SDS011;26371;56.992;23.912;2023-02-28T05:41:30;5.72;;;2.60;;
40152;SDS011;26371;56.992;23.912;2023-02-28T05:43:59;8.18;;;3.17;;
40152;SDS011;26371;56.992;23.912;2023-02-28T05:46:27;9.13;;;2.95;;
40152;SDS011;26371;56.992;23.912;2023-02-28T05:48:56;7.00;;;2.45;;
40152;SDS011;26371;56.992;23.912;2023-02-28T05:51:26;6.65;;;2.50;;
40152;SDS011;26371;56.992;23.912;2023-02-28T05:53:58;9.25;;;2.35;;
40152;SDS011;26371;56.992;23.912;2023-02-28T05:56:29;6.72;;;2.08;;
40152;SDS011;26371;56.992;23.912;2023-02-28T05:58:57;5.93;;;2.42;;
40152;SDS011;26371;56.992;23.912;2023-02-28T06:01:31;7.43;;;2.60;;
40152;SDS011;26371;56.992;23.912;2023-02-28T06:04:02;7.03;;;2.50;;
40152;SDS011;26371;56.992;23.912;2023-02-28T06:06:32;9.15;;;2.72;;
40152;SDS011;26371;56.992;23.912;2023-02-28T06:09:04;7.00;;;2.78;;
40152;SDS011;26371;56.992;23.912;2023-02-28T06:11:33;7.25;;;2.38;;
40152;SDS011;26371;56.992;23.912;2023-02-28T06:14:01;13.57;;;2.60;;
40152;SDS011;26371;56.992;23.912;2023-02-28T06:16:33;5.35;;;2.40;;
40152;SDS011;26371;56.992;23.912;2023-02-28T06:19:03;8.40;;;2.58;;
40152;SDS011;26371;56.992;23.912;2023-02-28T06:21:32;4.73;;;1.77;;
40152;SDS011;26371;56.992;23.912;2023-02-28T06:24:01;6.97;;;2.40;;
40152;SDS011;26371;56.992;23.912;2023-02-28T06:26:31;9.48;;;2.47;;
40152;SDS011;26371;56.992;23.912;2023-02-28T06:29:00;7.43;;;2.50;;
40152;SDS011;26371;56.992;23.912;2023-02-28T06:31:29;6.50;;;2.28;;
40152;SDS011;26371;56.992;23.912;2023-02-28T06:33:58;10.32;;;2.28;;
40152;SDS011;26371;56.992;23.912;2023-02-28T06:36:27;8.82;;;2.55;;
40152;SDS011;26371;56.992;23.912;2023-02-28T06:38:55;4.93;;;1.85;;
40152;SDS011;26371;56.992;23.912;2023-02-28T06:41:25;5.95;;;1.88;;
40152;SDS011;26371;56.992;23.912;2023-02-28T06:43:56;6.10;;;2.20;;
40152;SDS011;26371;56.992;23.912;2023-02-28T06:46:25;7.00;;;2.15;;
40152;SDS011;26371;56.992;23.912;2023-02-28T06:48:54;5.68;;;1.55;;
40152;SDS011;26371;56.992;23.912;2023-02-28T06:51:23;6.50;;;1.60;;
40152;SDS011;26371;56.992;23.912;2023-02-28T06:53:51;13.93;;;2.30;;
40152;SDS011;26371;56.992;23.912;2023-02-28T06:56:20;6.10;;;1.30;;
40152;SDS011;26371;56.992;23.912;2023-02-28T06:58:49;3.45;;;1.25;;
40152;SDS011;26371;56.992;23.912;2023-02-28T07:01:20;3.60;;;1.40;;
40152;SDS011;26371;56.992;23.912;2023-02-28T07:03:50;4.60;;;1.60;;
40152;SDS011;26371;56.992;23.912;2023-02-28T07:06:19;4.45;;;1.50;;
40152;SDS011;26371;56.992;23.912;2023-02-28T07:08:49;6.75;;;1.67;;
40152;SDS011;26371;56.992;23.912;2023-02-28T07:11:18;8.82;;;1.50;;
40152;SDS011;26371;56.992;23.912;2023-02-28T07:13:49;8.98;;;1.73;;
40152;SDS011;26371;56.992;23.912;2023-02-28T07:16:17;6.63;;;1.60;;
40152;SDS011;26371;56.992;23.912;2023-02-28T07:18:47;6.07;;;1.63;;
40152;SDS011;26371;56.992;23.912;2023-02-28T07:21:16;9.05;;;1.65;;
40152;SDS011;26371;56.992;23.912;2023-02-28T07:23:45;4.45;;;1.60;;
40152;SDS011;26371;56.992;23.912;2023-02-28T07:26:15;4.93;;;1.40;;
40152;SDS011;26371;56.992;23.912;2023-02-28T07:28:45;5.18;;;1.90;;
40152;SDS011;26371;56.992;23.912;2023-02-28T07:31:15;7.07;;;1.73;;
40152;SDS011;26371;56.992;23.912;2023-02-28T07:33:45;6.30;;;1.70;;
40152;SDS011;26371;56.992;23.912;2023-02-28T07:36:16;5.30;;;1.77;;
40152;SDS011;26371;56.992;23.912;2023-02-28T07:38:46;5.38;;;1.63;;
40152;SDS011;26371;56.992;23.912;2023-02-28T07:41:20;6.43;;;1.45;;
40152;SDS011;26371;56.992;23.912;2023-02-28T07:43:52;4.57;;;1.65;;
40152;SDS011;26371;56.992;23.912;2023-02-28T07:46:22;6.43;;;1.40;;
40152;SDS011;26371;56.992;23.912;2023-02-28T07:48:50;5.00;;;1.35;;
40152;SDS011;26371;56.992;23.912;2023-02-28T07:51:22;4.40;;;1.50;;
40152;SDS011;26371;56.992;23.912;2023-02-28T07:53:50;6.53;;;1.60;;
40152;SDS011;26371;56.992;23.912;2023-02-28T07:56:19;4.40;;;1.35;;
40152;SDS011;26371;56.992;23.912;2023-02-28T07:58:50;4.82;;;1.20;;
40152;SDS011;26371;56.992;23.912;2023-02-28T08:01:18;4.65;;;1.25;;
40152;SDS011;26371;56.992;23.912;2023-02-28T08:03:50;5.93;;;1.70;;
40152;SDS011;26371;56.992;23.912;2023-02-28T08:06:22;3.88;;;1.20;;
40152;SDS011;26371;56.992;23.912;2023-02-28T08:08:52;6.00;;;1.55;;
40152;SDS011;26371;56.992;23.912;2023-02-28T08:11:22;4.38;;;1.60;;
40152;SDS011;26371;56.992;23.912;2023-02-28T08:13:52;6.43;;;1.15;;
40152;SDS011;26371;56.992;23.912;2023-02-28T08:16:22;4.22;;;1.60;;
40152;SDS011;26371;56.992;23.912;2023-02-28T08:18:50;3.75;;;1.25;;
40152;SDS011;26371;56.992;23.912;2023-02-28T08:21:20;6.03;;;1.55;;
40152;SDS011;26371;56.992;23.912;2023-02-28T08:23:50;4.57;;;1.48;;
40152;SDS011;26371;56.992;23.912;2023-02-28T08:26:20;5.00;;;1.40;;
40152;SDS011;26371;56.992;23.912;2023-02-28T08:28:48;5.18;;;1.42;;
40152;SDS011;26371;56.992;23.912;2023-02-28T08:31:17;3.57;;;1.30;;
40152;SDS011;26371;56.992;23.912;2023-02-28T08:33:47;3.85;;;1.10;;
40152;SDS011;26371;56.992;23.912;2023-02-28T08:36:18;5.38;;;1.20;;
40152;SDS011;26371;56.992;23.912;2023-02-28T08:38:48;5.00;;;1.40;;
40152;SDS011;26371;56.992;23.912;2023-02-28T08:41:17;4.32;;;1.25;;
40152;SDS011;26371;56.992;23.912;2023-02-28T08:43:45;3.28;;;1.20;;
40152;SDS011;26371;56.992;23.912;2023-02-28T08:46:14;5.50;;;1.20;;
40152;SDS011;26371;56.992;23.912;2023-02-28T08:48:43;4.95;;;1.50;;
40152;SDS011;26371;56.992;23.912;2023-02-28T08:51:12;4.85;;;1.40;;
40152;SDS011;26371;56.992;23.912;2023-02-28T08:53:42;6.68;;;1.40;;
40152;SDS011;26371;56.992;23.912;2023-02-28T08:56:13;3.63;;;1.20;;
40152;SDS011;26371;56.992;23.912;2023-02-28T08:58:43;4.57;;;1.23;;
40152;SDS011;26371;56.992;23.912;2023-02-28T09:01:13;4.13;;;1.23;;
40152;SDS011;26371;56.992;23.912;2023-02-28T09:03:43;4.38;;;1.30;;
40152;SDS011;26371;56.992;23.912;2023-02-28T09:06:14;6.43;;;1.38;;
40152;SDS011;26371;56.992;23.912;2023-02-28T09:08:44;5.05;;;1.33;;
40152;SDS011;26371;56.992;23.912;2023-02-28T09:11:14;4.32;;;1.70;;
40152;SDS011;26371;56.992;23.912;2023-02-28T09:13:43;3.40;;;1.10;;
40152;SDS011;26371;56.992;23.912;2023-02-28T09:16:12;3.90;;;1.10;;
40152;SDS011;26371;56.992;23.912;2023-02-28T09:18:42;2.50;;;0.95;;
40152;SDS011;26371;56.992;23.912;2023-02-28T09:21:12;4.50;;;1.30;;
40152;SDS011;26371;56.992;23.912;2023-02-28T09:23:42;5.07;;;2.10;;
40152;SDS011;26371;56.992;23.912;2023-02-28T09:28:45;3.50;;;0.95;;
40152;SDS011;26371;56.992;23.912;2023-02-28T09:31:14;2.80;;;1.00;;
40152;SDS011;26371;56.992;23.912;2023-02-28T09:33:47;6.00;;;1.30;;
40152;SDS011;26371;56.992;23.912;2023-02-28T09:36:16;4.15;;;1.10;;
40152;SDS011;26371;56.992;23.912;2023-02-28T09:41:17;4.82;;;1.10;;
40152;SDS011;26371;56.992;23.912;2023-02-28T09:43:50;3.63;;;1.48;;
40152;SDS011;26371;56.992;23.912;2023-02-28T09:46:33;5.15;;;1.23;;
40152;SDS011;26371;56.992;23.912;2023-02-28T09:49:07;7.32;;;1.05;;
40152;SDS011;26371;56.992;23.912;2023-02-28T09:51:44;3.15;;;0.88;;
40152;SDS011;26371;56.992;23.912;2023-02-28T09:54:18;5.15;;;1.20;;
40152;SDS011;26371;56.992;23.912;2023-02-28T09:56:50;3.92;;;0.90;;
40152;SDS011;26371;56.992;23.912;2023-02-28T09:59:29;5.38;;;1.00;;
40152;SDS011;26371;56.992;23.912;2023-02-28T10:02:10;3.90;;;0.82;;
40152;SDS011;26371;56.992;23.912;2023-02-28T10:04:50;3.45;;;0.70;;
40152;SDS011;26371;56.992;23.912;2023-02-28T10:07:26;3.83;;;0.75;;
40152;SDS011;26371;56.992;23.912;2023-02-28T10:10:06;3.97;;;1.00;;
40152;SDS011;26371;56.992;23.912;2023-02-28T10:12:47;6.53;;;1.17;;
40152;SDS011;26371;56.992;23.912;2023-02-28T10:15:19;5.63;;;0.98;;
40152;SDS011;26371;56.992;23.912;2023-02-28T10:17:54;4.20;;;1.00;;
40152;SDS011;26371;56.992;23.912;2023-02-28T10:20:35;4.93;;;1.35;;
40152;SDS011;26371;56.992;23.912;2023-02-28T10:23:10;3.80;;;1.27;;
40152;SDS011;26371;56.992;23.912;2023-02-28T10:25:44;5.22;;;1.17;;
40152;SDS011;26371;56.992;23.912;2023-02-28T10:28:19;5.95;;;1.42;;
40152;SDS011;26371;56.992;23.912;2023-02-28T10:30:49;14.95;;;4.18;;
40152;SDS011;26371;56.992;23.912;2023-02-28T10:33:21;4.95;;;0.93;;
40152;SDS011;26371;56.992;23.912;2023-02-28T10:35:52;3.88;;;0.90;;
40152;SDS011;26371;56.992;23.912;2023-02-28T10:38:21;4.53;;;0.95;;
40152;SDS011;26371;56.992;23.912;2023-02-28T10:40:51;4.68;;;0.63;;
40152;SDS011;26371;56.992;23.912;2023-02-28T10:43:33;4.97;;;0.90;;
40152;SDS011;26371;56.992;23.912;2023-02-28T10:46:03;3.65;;;0.80;;
40152;SDS011;26371;56.992;23.912;2023-02-28T10:48:41;2.95;;;0.90;;
40152;SDS011;26371;56.992;23.912;2023-02-28T10:51:12;4.15;;;0.95;;
40152;SDS011;26371;56.992;23.912;2023-02-28T10:53:47;4.95;;;0.90;;
40152;SDS011;26371;56.992;23.912;2023-02-28T10:56:27;2.10;;;0.63;;
40152;SDS011;26371;56.992;23.912;2023-02-28T10:58:59;5.70;;;0.70;;
40152;SDS011;26371;56.992;23.912;2023-02-28T11:01:37;5.85;;;1.00;;
40152;SDS011;26371;56.992;23.912;2023-02-28T11:04:19;7.13;;;1.30;;
40152;SDS011;26371;56.992;23.912;2023-02-28T11:07:03;3.22;;;0.80;;
40152;SDS011;26371;56.992;23.912;2023-02-28T11:09:35;5.05;;;0.90;;
40152;SDS011;26371;56.992;23.912;2023-02-28T11:12:16;6.05;;;0.88;;
40152;SDS011;26371;56.992;23.912;2023-02-28T11:14:51;2.50;;;0.60;;
40152;SDS011;26371;56.992;23.912;2023-02-28T11:17:23;3.63;;;0.80;;
40152;SDS011;26371;56.992;23.912;2023-02-28T11:19:54;2.13;;;0.70;;
40152;SDS011;26371;56.992;23.912;2023-02-28T11:22:25;3.17;;;0.82;;
40152;SDS011;26371;56.992;23.912;2023-02-28T11:24:56;2.58;;;0.40;;
40152;SDS011;26371;56.992;23.912;2023-02-28T11:27:45;7.88;;;1.50;;
40152;SDS011;26371;56.992;23.912;2023-02-28T11:30:31;4.97;;;0.70;;
40152;SDS011;26371;56.992;23.912;2023-02-28T11:33:14;2.78;;;0.80;;
40152;SDS011;26371;56.992;23.912;2023-02-28T11:35:49;3.35;;;0.90;;
40152;SDS011;26371;56.992;23.912;2023-02-28T11:38:20;3.25;;;0.70;;
40152;SDS011;26371;56.992;23.912;2023-02-28T11:40:51;7.57;;;2.00;;
40152;SDS011;26371;56.992;23.912;2023-02-28T11:43:40;3.78;;;0.80;;
40152;SDS011;26371;56.992;23.912;2023-02-28T11:46:29;3.15;;;1.00;;
40152;SDS011;26371;56.992;23.912;2023-02-28T11:49:03;2.42;;;0.55;;
40152;SDS011;26371;56.992;23.912;2023-02-28T11:51:47;3.40;;;0.80;;
40152;SDS011;26371;56.992;23.912;2023-02-28T11:54:26;3.47;;;0.77;;
40152;SDS011;26371;56.992;23.912;2023-02-28T11:57:21;3.17;;;0.60;;
40152;SDS011;26371;56.992;23.912;2023-02-28T12:00:07;3.95;;;0.93;;
40152;SDS011;26371;56.992;23.912;2023-02-28T12:02:49;3.15;;;0.90;;
40152;SDS011;26371;56.992;23.912;2023-02-28T12:05:28;2.45;;;0.70;;
40152;SDS011;26371;56.992;23.912;2023-02-28T12:08:04;1.95;;;0.60;;
40152;SDS011;26371;56.992;23.912;2023-02-28T12:10:44;4.70;;;0.80;;
40152;SDS011;26371;56.992;23.912;2023-02-28T12:13:26;2.83;;;0.70;;
40152;SDS011;26371;56.992;23.912;2023-02-28T12:16:18;4.93;;;0.77;;
40152;SDS011;26371;56.992;23.912;2023-02-28T12:19:01;4.20;;;0.70;;
40152;SDS011;26371;56.992;23.912;2023-02-28T12:21:43;3.47;;;0.77;;
40152;SDS011;26371;56.992;23.912;2023-02-28T12:24:39;5.15;;;0.93;;
40152;SDS011;26371;56.992;23.912;2023-02-28T12:27:40;2.45;;;0.50;;
40152;SDS011;26371;56.992;23.912;2023-02-28T12:30:13;4.93;;;0.80;;
40152;SDS011;26371;56.992;23.912;2023-02-28T12:33:06;2.75;;;0.63;;
40152;SDS011;26371;56.992;23.912;2023-02-28T12:35:38;4.10;;;0.80;;
40152;SDS011;26371;56.992;23.912;2023-02-28T12:38:12;3.67;;;1.10;;
40152;SDS011;26371;56.992;23.912;2023-02-28T12:40:47;3.25;;;0.80;;
40152;SDS011;26371;56.992;23.912;2023-02-28T12:43:20;3.88;;;0.77;;
40152;SDS011;26371;56.992;23.912;2023-02-28T12:45:53;3.47;;;0.90;;
40152;SDS011;26371;56.992;23.912;2023-02-28T12:48:29;3.33;;;1.00;;
40152;SDS011;26371;56.992;23.912;2023-02-28T12:51:05;5.70;;;1.10;;
40152;SDS011;26371;56.992;23.912;2023-02-28T12:53:38;5.13;;;1.00;;
40152;SDS011;26371;56.992;23.912;2023-02-28T12:56:23;2.38;;;0.90;;
40152;SDS011;26371;56.992;23.912;2023-02-28T12:59:03;5.28;;;1.08;;
40152;SDS011;26371;56.992;23.912;2023-02-28T13:01:42;4.07;;;0.90;;
40152;SDS011;26371;56.992;23.912;2023-02-28T13:04:42;4.68;;;0.98;;
40152;SDS011;26371;56.992;23.912;2023-02-28T13:07:29;3.20;;;0.90;;
40152;SDS011;26371;56.992;23.912;2023-02-28T13:10:11;3.50;;;0.80;;
40152;SDS011;26371;56.992;23.912;2023-02-28T13:12:47;4.95;;;0.80;;
40152;SDS011;26371;56.992;23.912;2023-02-28T13:15:18;2.55;;;0.52;;
40152;SDS011;26371;56.992;23.912;2023-02-28T13:17:51;4.03;;;0.80;;
40152;SDS011;26371;56.992;23.912;2023-02-28T13:20:23;4.70;;;1.33;;
40152;SDS011;26371;56.992;23.912;2023-02-28T13:22:53;4.93;;;0.70;;
40152;SDS011;26371;56.992;23.912;2023-02-28T13:34:37;4.40;;;0.80;;
40152;SDS011;26371;56.992;23.912;2023-02-28T13:43:07;3.70;;;0.70;;
40152;SDS011;26371;56.992;23.912;2023-02-28T13:45:36;3.63;;;0.77;;
40152;SDS011;26371;56.992;23.912;2023-02-28T13:50:43;2.92;;;0.73;;
40152;SDS011;26371;56.992;23.912;2023-02-28T13:56:27;3.05;;;0.80;;
40152;SDS011;26371;56.992;23.912;2023-02-28T13:59:05;2.47;;;0.70;;
40152;SDS011;26371;56.992;23.912;2023-02-28T14:01:56;2.65;;;0.80;;
40152;SDS011;26371;56.992;23.912;2023-02-28T14:04:41;4.60;;;0.77;;
40152;SDS011;26371;56.992;23.912;2023-02-28T14:07:21;2.75;;;1.15;;
40152;SDS011;26371;56.992;23.912;2023-02-28T14:09:57;3.47;;;0.52;;
40152;SDS011;26371;56.992;23.912;2023-02-28T14:12:52;3.20;;;0.60;;
40152;SDS011;26371;56.992;23.912;2023-02-28T14:18:17;1.90;;;0.65;;
40152;SDS011;26371;56.992;23.912;2023-02-28T14:20:56;4.38;;;1.63;;
40152;SDS011;26371;56.992;23.912;2023-02-28T14:23:39;4.20;;;0.80;;
40152;SDS011;26371;56.992;23.912;2023-02-28T14:26:20;4.00;;;0.70;;
40152;SDS011;26371;56.992;23.912;2023-02-28T14:29:07;6.05;;;0.75;;
40152;SDS011;26371;56.992;23.912;2023-02-28T14:31:58;3.13;;;0.70;;
40152;SDS011;26371;56.992;23.912;2023-02-28T14:34:34;3.20;;;0.80;;
40152;SDS011;26371;56.992;23.912;2023-02-28T14:37:10;3.47;;;0.60;;
40152;SDS011;26371;56.992;23.912;2023-02-28T14:39:43;3.67;;;0.70;;
40152;SDS011;26371;56.992;23.912;2023-02-28T14:42:29;3.58;;;0.63;;
40152;SDS011;26371;56.992;23.912;2023-02-28T14:45:00;5.85;;;0.82;;
40152;SDS011;26371;56.992;23.912;2023-02-28T14:47:30;4.10;;;0.68;;
40152;SDS011;26371;56.992;23.912;2023-02-28T14:50:01;3.03;;;0.50;;
40152;SDS011;26371;56.992;23.912;2023-02-28T14:52:32;2.78;;;0.93;;
40152;SDS011;26371;56.992;23.912;2023-02-28T14:55:01;3.45;;;0.80;;
40152;SDS011;26371;56.992;23.912;2023-02-28T14:57:38;4.63;;;0.80;;
40152;SDS011;26371;56.992;23.912;2023-02-28T15:00:12;2.95;;;0.47;;
40152;SDS011;26371;56.992;23.912;2023-02-28T15:02:42;5.13;;;1.00;;
40152;SDS011;26371;56.992;23.912;2023-02-28T15:08:03;2.50;;;0.75;;
40152;SDS011;26371;56.992;23.912;2023-02-28T15:10:33;2.33;;;0.43;;
40152;SDS011;26371;56.992;23.912;2023-02-28T15:13:04;2.38;;;0.45;;
40152;SDS011;26371;56.992;23.912;2023-02-28T15:15:43;5.82;;;1.13;;
40152;SDS011;26371;56.992;23.912;2023-02-28T15:18:31;2.72;;;0.57;;
40152;SDS011;26371;56.992;23.912;2023-02-28T15:21:10;1.83;;;0.50;;
40152;SDS011;26371;56.992;23.912;2023-02-28T15:23:44;2.58;;;0.55;;
40152;SDS011;26371;56.992;23.912;2023-02-28T15:26:17;3.15;;;0.70;;
40152;SDS011;26371;56.992;23.912;2023-02-28T15:28:50;3.47;;;0.60;;
40152;SDS011;26371;56.992;23.912;2023-02-28T15:31:23;3.80;;;0.63;;
40152;SDS011;26371;56.992;23.912;2023-02-28T15:34:05;5.63;;;0.55;;
40152;SDS011;26371;56.992;23.912;2023-02-28T15:36:34;2.35;;;0.57;;
40152;SDS011;26371;56.992;23.912;2023-02-28T15:39:16;1.50;;;0.40;;
40152;SDS011;26371;56.992;23.912;2023-02-28T15:41:47;2.25;;;0.43;;
40152;SDS011;26371;56.992;23.912;2023-02-28T15:44:26;5.07;;;0.80;;
40152;SDS011;26371;56.992;23.912;2023-02-28T15:46:59;2.53;;;0.80;;
40152;SDS011;26371;56.992;23.912;2023-02-28T15:49:29;2.38;;;0.43;;
40152;SDS011;26371;56.992;23.912;2023-02-28T15:52:12;3.42;;;0.80;;